Airfield :
LOGIN :

Register | Disclaimer

   EN    FR    IT 

 










Legend :    VFR   Marginal VFR   IFR   Intensive IFR   Very Intensive IFR
Visi :
Ceiling :
>= 8 km
>= 3000ft
5 to 8 km
1000 to 3000 ft
1500m to 5 km
500 to 1000 ft
800 to 1500m
200 to 500 ft
< 800m
< 200 ft
Symbols :   Thunderstorms  Fog  Heavy snow  Heavy precipitations  Wind > 20 kt
SIGMETs :     Misc.  Thunderstorms  Icing  Turbulence  Mountain Waves  Volcanic Ashes






- Airport Elevation : 268 ft
- IATA code : BFS


EGAA - Belfast Aldergrove

CURRENT METAR :
  • 281220Z 04012KT 9999 SCT037 OVC045 09/03 Q1039

EXPIRED METARs :
  • 281150Z 04012KT 9999 FEW027 SCT034 08/04 Q1039
  • 281120Z 05014KT 9999 FEW031 SCT037 BKN045 09/04 Q1039
  • 281050Z 04014KT 9999 SCT027 09/03 Q1038
  • 281020Z 04011KT 9999 FEW029 09/03 Q1038
  • 280950Z 05010KT 9999 FEW028 09/04 Q1038

TAF TAF EGAA
Valid from the 28 at 12:00 until the 29 at 12:00 UTC


281055Z 2812/2912 03012KT 9999 SCT030



MET'MAP, your aeronautical weather chart ! - Copyright ORBIFLY December 2007 - Disclaimer

ORBIFLY MET'MAP TEAM :

Programming & Development : Alexandra Zaïnal
Concept & original design : Baudouin d'Aumeries
Assistance for programming : Marc-Olivier Méhu
Technical & hardware support : Manuel Goepfert

Contact : metmap@orbifly.com




SOURCES & CREDITS :

   NOAA